createdAt,value
2022-11-29T00:00:47.639Z,4.68
2022-11-29T00:03:36.189Z,4.13
2022-11-29T00:06:31.308Z,4.15
2022-11-29T00:09:09.089Z,3.83
2022-11-29T00:12:15.762Z,4.78
2022-11-29T00:15:06.397Z,4.43
2022-11-29T00:17:55.088Z,4.20
2022-11-29T00:20:44.816Z,4.47
2022-11-29T00:23:35.171Z,3.70
2022-11-29T00:26:23.921Z,4.90
2022-11-29T00:29:13.687Z,4.55
2022-11-29T00:32:01.974Z,4.15
2022-11-29T00:34:50.393Z,4.40
2022-11-29T00:38:36.711Z,4.65
2022-11-29T00:41:25.450Z,3.95
2022-11-29T00:43:54.500Z,5.05
2022-11-29T00:46:22.664Z,4.85
2022-11-29T00:48:50.409Z,4.85
2022-11-29T00:51:18.165Z,4.20
2022-11-29T00:53:45.935Z,4.53
2022-11-29T00:56:13.909Z,4.47
2022-11-29T00:58:43.745Z,4.55
2022-11-29T01:01:12.205Z,3.67
2022-11-29T01:03:40.457Z,4.32
2022-11-29T01:06:11.115Z,3.83
2022-11-29T01:08:39.431Z,4.10
2022-11-29T01:11:19.988Z,4.55
2022-11-29T01:13:49.442Z,4.72
2022-11-29T01:16:17.952Z,4.50
2022-11-29T01:18:46.140Z,4.68
2022-11-29T01:21:17.037Z,4.78
2022-11-29T01:23:45.944Z,5.07
2022-11-29T01:26:19.943Z,4.80
2022-11-29T01:28:50.820Z,4.75
2022-11-29T01:31:25.230Z,4.93
2022-11-29T01:34:02.773Z,4.22
2022-11-29T01:36:33.696Z,4.40
2022-11-29T01:39:27.694Z,4.82
2022-11-29T01:41:55.489Z,4.72
2022-11-29T01:44:23.118Z,4.97
2022-11-29T01:46:50.873Z,5.50
2022-11-29T01:49:29.064Z,4.60
2022-11-29T01:52:03.306Z,5.50
2022-11-29T01:54:33.999Z,5.03
2022-11-29T01:57:05.012Z,5.72
2022-11-29T01:59:33.488Z,5.38
2022-11-29T02:02:09.043Z,5.97
2022-11-29T02:04:38.185Z,4.75
2022-11-29T02:07:06.422Z,5.45
2022-11-29T02:09:34.203Z,5.70
2022-11-29T02:12:38.214Z,4.68
2022-11-29T02:15:24.663Z,5.20
2022-11-29T02:18:42.840Z,5.03
2022-11-29T02:21:38.098Z,5.20
2022-11-29T02:24:44.467Z,5.65
2022-11-29T02:27:53.516Z,5.28
2022-11-29T02:30:24.141Z,4.70
2022-11-29T02:33:06.393Z,5.60
2022-11-29T02:36:22.832Z,5.57
2022-11-29T02:39:08.495Z,4.80
2022-11-29T02:42:05.683Z,5.03
2022-11-29T02:44:54.779Z,4.45
2022-11-29T02:47:40.600Z,4.53
2022-11-29T02:50:29.040Z,4.60
2022-11-29T02:53:35.869Z,5.03
2022-11-29T02:56:48.075Z,4.65
2022-11-29T02:59:40.442Z,4.88
2022-11-29T03:02:08.364Z,4.63
2022-11-29T03:05:17.433Z,6.18
2022-11-29T03:07:59.469Z,5.20
2022-11-29T03:10:43.738Z,5.18
2022-11-29T03:13:42.561Z,5.35
2022-11-29T03:16:43.279Z,5.18
2022-11-29T03:19:29.946Z,4.88
2022-11-29T03:22:20.221Z,5.78
2022-11-29T03:24:50.743Z,5.38
2022-11-29T03:27:29.766Z,5.50
2022-11-29T03:30:01.007Z,5.80
2022-11-29T03:33:21.246Z,5.07
2022-11-29T03:35:57.895Z,5.00
2022-11-29T03:38:44.956Z,5.22
2022-11-29T03:41:27.925Z,5.40
2022-11-29T03:44:14.666Z,5.60
2022-11-29T03:46:46.656Z,5.70
2022-11-29T03:49:21.858Z,5.68
2022-11-29T03:52:15.938Z,6.20
2022-11-29T03:55:11.622Z,5.45
2022-11-29T03:57:55.860Z,5.70
2022-11-29T04:00:24.328Z,5.00
2022-11-29T04:03:19.546Z,5.28
2022-11-29T04:05:57.429Z,5.32
2022-11-29T04:08:45.849Z,5.38
2022-11-29T04:12:04.775Z,5.30
2022-11-29T04:15:03.143Z,5.65
2022-11-29T04:18:08.387Z,5.72
2022-11-29T04:21:10.026Z,5.43
2022-11-29T04:23:55.959Z,5.38
2022-11-29T04:26:34.678Z,5.18
2022-11-29T04:29:15.344Z,5.53
2022-11-29T04:32:22.985Z,4.95
2022-11-29T04:35:28.956Z,5.18
2022-11-29T04:37:59.595Z,5.00
2022-11-29T04:40:27.959Z,5.10
2022-11-29T04:43:15.032Z,4.75
2022-11-29T04:46:03.493Z,5.55
2022-11-29T04:49:12.503Z,4.88
2022-11-29T04:51:47.472Z,4.97
2022-11-29T04:54:46.010Z,5.43
2022-11-29T04:57:35.615Z,5.25
2022-11-29T05:00:07.846Z,4.30
2022-11-29T05:02:47.826Z,5.13
2022-11-29T05:05:27.873Z,4.82
2022-11-29T05:08:02.863Z,4.63
2022-11-29T05:11:00.249Z,4.63
2022-11-29T05:13:45.673Z,4.43
2022-11-29T05:16:31.404Z,4.57
2022-11-29T05:19:34.338Z,4.60
2022-11-29T05:22:23.120Z,4.07
2022-11-29T05:25:14.345Z,4.53
2022-11-29T05:28:03.404Z,3.90
2022-11-29T05:31:03.805Z,4.28
2022-11-29T05:33:37.469Z,4.35
2022-11-29T05:36:21.413Z,4.03
2022-11-29T05:39:02.658Z,3.88
2022-11-29T05:41:33.460Z,4.03
2022-11-29T05:44:28.491Z,4.90
2022-11-29T05:47:00.531Z,7.45
2022-11-29T05:49:55.632Z,4.43
2022-11-29T05:52:42.579Z,4.10
2022-11-29T05:55:46.549Z,4.10
2022-11-29T05:58:43.792Z,3.80
2022-11-29T06:01:30.191Z,3.53
2022-11-29T06:04:15.010Z,3.85
2022-11-29T06:07:26.364Z,3.35
2022-11-29T06:10:06.199Z,3.22
2022-11-29T06:12:37.846Z,3.17
2022-11-29T06:15:37.094Z,3.20
2022-11-29T06:18:12.159Z,3.20
2022-11-29T06:20:47.359Z,3.00
2022-11-29T06:23:25.066Z,3.35
2022-11-29T06:26:30.812Z,3.40
2022-11-29T06:29:13.422Z,3.28
2022-11-29T06:31:45.812Z,3.72
2022-11-29T06:34:36.212Z,3.60
2022-11-29T06:37:43.220Z,2.72
2022-11-29T06:40:14.589Z,3.00
2022-11-29T06:42:43.152Z,3.33
2022-11-29T06:45:34.477Z,2.80
2022-11-29T06:48:27.494Z,3.22
2022-11-29T06:51:17.199Z,2.90
2022-11-29T06:54:17.325Z,2.80
2022-11-29T06:56:57.229Z,2.97
2022-11-29T06:59:43.477Z,3.60
2022-11-29T07:02:32.339Z,3.35
2022-11-29T07:05:14.295Z,3.05
2022-11-29T07:07:43.235Z,2.97
2022-11-29T07:10:17.381Z,3.28
2022-11-29T07:12:46.707Z,2.75
2022-11-29T07:15:20.138Z,2.95
2022-11-29T07:18:00.048Z,3.38
2022-11-29T07:20:39.997Z,3.30
2022-11-29T07:23:27.862Z,3.28
2022-11-29T07:29:03.100Z,3.63
2022-11-29T07:31:55.049Z,3.05
2022-11-29T07:34:34.676Z,3.10
2022-11-29T07:37:31.338Z,2.70
2022-11-29T07:40:37.941Z,3.00
2022-11-29T07:43:11.812Z,3.30
2022-11-29T07:45:40.248Z,2.97
2022-11-29T07:48:10.938Z,3.67
2022-11-29T07:50:39.580Z,2.95
2022-11-29T07:53:07.608Z,2.50
2022-11-29T07:55:37.256Z,2.85
2022-11-29T07:58:04.943Z,2.70
2022-11-29T08:00:32.833Z,2.65
2022-11-29T08:03:00.606Z,2.60
2022-11-29T08:05:29.407Z,2.97
2022-11-29T08:07:57.302Z,2.40
2022-11-29T08:10:25.204Z,3.08
2022-11-29T08:12:53.694Z,2.67
2022-11-29T08:15:23.335Z,2.90
2022-11-29T08:17:51.788Z,2.50
2022-11-29T08:20:19.934Z,2.58
2022-11-29T08:22:57.973Z,2.90
2022-11-29T08:25:27.558Z,2.90
2022-11-29T08:27:56.203Z,2.42
2022-11-29T08:30:24.207Z,2.72
2022-11-29T08:32:52.675Z,2.78
2022-11-29T08:35:22.270Z,2.90
2022-11-29T08:37:50.254Z,2.83
2022-11-29T08:40:18.895Z,3.45
2022-11-29T08:42:46.683Z,3.17
2022-11-29T08:45:14.524Z,3.67
2022-11-29T08:47:43.196Z,3.10
2022-11-29T08:50:15.213Z,3.17
2022-11-29T08:53:06.435Z,3.35
2022-11-29T08:55:37.333Z,3.05
2022-11-29T08:58:08.619Z,3.28
2022-11-29T09:00:37.347Z,3.33
2022-11-29T09:03:25.839Z,3.33
2022-11-29T09:05:54.029Z,3.60
2022-11-29T09:08:21.962Z,3.47
2022-11-29T09:10:50.517Z,3.92
2022-11-29T09:13:18.396Z,4.03
2022-11-29T09:15:46.379Z,3.55
2022-11-29T09:18:14.123Z,4.32
2022-11-29T09:20:45.361Z,3.63
2022-11-29T09:23:13.563Z,4.15
2022-11-29T09:25:41.413Z,3.78
2022-11-29T09:28:09.164Z,2.97
2022-11-29T09:30:38.298Z,3.65
2022-11-29T09:33:06.092Z,3.38
2022-11-29T09:35:35.327Z,3.65
2022-11-29T09:38:03.079Z,3.30
2022-11-29T09:41:04.589Z,3.17
2022-11-29T09:44:03.973Z,3.58
2022-11-29T09:46:58.547Z,3.20
2022-11-29T09:50:06.060Z,3.67
2022-11-29T09:53:02.135Z,3.53
2022-11-29T09:55:51.212Z,3.47
2022-11-29T09:58:26.482Z,3.70
2022-11-29T10:01:00.299Z,3.90
2022-11-29T10:03:41.107Z,3.50
2022-11-29T10:06:31.140Z,3.35
2022-11-29T10:09:02.387Z,3.13
2022-11-29T10:11:41.702Z,3.28
2022-11-29T10:14:30.424Z,3.20
2022-11-29T10:17:17.502Z,3.78
2022-11-29T10:19:50.452Z,3.35
2022-11-29T10:22:27.957Z,4.10
2022-11-29T10:25:01.831Z,3.70
2022-11-29T10:27:31.373Z,3.42
2022-11-29T10:30:01.511Z,3.80
2022-11-29T10:32:33.398Z,3.20
2022-11-29T10:35:01.829Z,3.20
2022-11-29T10:37:33.100Z,2.92
2022-11-29T10:40:08.179Z,3.00
2022-11-29T10:42:54.325Z,3.28
2022-11-29T10:45:40.751Z,3.65
2022-11-29T10:48:13.099Z,3.33
2022-11-29T10:50:44.333Z,3.30
2022-11-29T10:53:18.111Z,3.28
2022-11-29T10:56:01.071Z,3.30
2022-11-29T10:58:30.868Z,3.03
2022-11-29T11:01:00.019Z,3.08
2022-11-29T11:03:37.625Z,3.55
2022-11-29T11:06:14.028Z,3.25
2022-11-29T11:08:57.952Z,3.33
2022-11-29T11:11:33.395Z,3.35
2022-11-29T11:14:07.209Z,3.30
2022-11-29T11:16:37.649Z,3.30
2022-11-29T11:19:41.544Z,2.90
2022-11-29T11:22:21.802Z,3.80
2022-11-29T11:25:35.302Z,3.08
2022-11-29T11:28:24.424Z,3.15
2022-11-29T11:31:01.661Z,3.13
2022-11-29T11:36:14.737Z,3.30
2022-11-29T11:38:57.632Z,3.10
2022-11-29T11:41:49.709Z,2.80
2022-11-29T11:44:49.578Z,3.17
2022-11-29T11:47:27.510Z,3.00
2022-11-29T11:50:08.301Z,2.97
2022-11-29T11:52:54.173Z,2.40
2022-11-29T11:55:21.885Z,3.20
2022-11-29T11:58:09.272Z,2.60
2022-11-29T12:01:03.579Z,2.90
2022-11-29T12:04:02.069Z,3.10
2022-11-29T12:06:29.905Z,2.55
2022-11-29T12:09:05.767Z,3.22
2022-11-29T12:11:46.620Z,2.90
2022-11-29T12:14:50.202Z,2.80
2022-11-29T12:17:21.136Z,2.92
2022-11-29T12:20:15.565Z,3.10
2022-11-29T12:23:09.738Z,3.00
2022-11-29T12:25:52.579Z,2.80
2022-11-29T12:28:28.728Z,2.70
2022-11-29T12:31:21.578Z,2.60
2022-11-29T12:34:21.987Z,3.45
2022-11-29T12:37:27.801Z,2.72
2022-11-29T12:43:47.630Z,2.60
2022-11-29T12:46:38.960Z,2.67
2022-11-29T12:49:49.400Z,3.10
2022-11-29T12:52:50.440Z,3.00
2022-11-29T12:56:02.850Z,2.83
2022-11-29T12:59:06.676Z,3.17
2022-11-29T13:02:18.976Z,3.20
2022-11-29T13:05:52.193Z,3.03
2022-11-29T13:08:49.277Z,3.00
2022-11-29T13:12:08.044Z,3.20
2022-11-29T13:15:05.781Z,3.08
2022-11-29T13:17:44.061Z,2.83
2022-11-29T13:20:22.051Z,2.55
2022-11-29T13:23:03.194Z,3.03
2022-11-29T13:26:01.687Z,3.08
2022-11-29T13:28:38.159Z,3.55
2022-11-29T13:31:28.073Z,2.87
2022-11-29T13:33:59.352Z,3.20
2022-11-29T13:36:33.689Z,3.63
2022-11-29T13:39:26.509Z,3.63
2022-11-29T13:42:06.531Z,4.72
2022-11-29T13:45:26.082Z,6.18
2022-11-29T13:48:29.557Z,4.57
2022-11-29T13:50:59.840Z,4.90
2022-11-29T13:53:49.418Z,5.15
2022-11-29T13:56:48.431Z,4.40
2022-11-29T13:59:44.277Z,3.72
2022-11-29T14:02:31.432Z,4.25
2022-11-29T14:05:28.242Z,4.63
2022-11-29T14:09:01.950Z,4.72
2022-11-29T14:11:44.999Z,4.45
2022-11-29T14:14:53.632Z,4.18
2022-11-29T14:18:03.386Z,3.88
2022-11-29T14:20:56.541Z,4.28
2022-11-29T14:23:47.159Z,4.18
2022-11-29T14:26:28.615Z,4.50
2022-11-29T14:32:57.330Z,4.25
2022-11-29T14:35:43.607Z,3.40
2022-11-29T14:39:02.860Z,3.40
2022-11-29T14:41:57.168Z,3.17
2022-11-29T14:44:49.488Z,3.38
2022-11-29T14:47:33.559Z,3.17
2022-11-29T14:50:10.317Z,3.28
2022-11-29T14:52:52.710Z,3.55
2022-11-29T14:55:41.314Z,3.00
2022-11-29T14:58:21.420Z,3.30
2022-11-29T15:01:11.518Z,2.80
2022-11-29T15:03:50.738Z,2.72
2022-11-29T15:06:51.656Z,2.90
2022-11-29T15:09:35.609Z,2.88
2022-11-29T15:12:36.114Z,3.08
2022-11-29T15:15:30.870Z,3.60
2022-11-29T15:18:29.656Z,2.95
2022-11-29T15:21:21.555Z,2.90
2022-11-29T15:24:08.077Z,3.00
2022-11-29T15:27:01.534Z,3.17
2022-11-29T15:29:51.359Z,2.90
2022-11-29T15:32:33.785Z,3.33
2022-11-29T15:35:22.158Z,2.90
2022-11-29T15:38:18.659Z,2.92
2022-11-29T15:41:18.549Z,3.55
2022-11-29T15:44:01.183Z,3.30
2022-11-29T15:46:49.613Z,3.17
2022-11-29T15:49:38.202Z,3.25
2022-11-29T15:52:20.053Z,3.17
2022-11-29T15:55:06.831Z,3.30
2022-11-29T15:57:44.665Z,3.53
2022-11-29T16:00:24.778Z,3.30
2022-11-29T16:03:21.440Z,3.10
2022-11-29T16:06:27.967Z,3.05
2022-11-29T16:09:02.723Z,3.28
2022-11-29T16:11:51.640Z,3.50
2022-11-29T16:14:59.905Z,3.08
2022-11-29T16:17:34.467Z,2.85
2022-11-29T16:20:14.797Z,3.10
2022-11-29T16:22:45.466Z,3.72
2022-11-29T16:25:19.531Z,4.10
2022-11-29T16:27:49.056Z,3.03
2022-11-29T16:30:25.914Z,2.78
2022-11-29T16:32:59.294Z,3.00
2022-11-29T16:35:36.782Z,3.03
2022-11-29T16:38:05.678Z,2.80
2022-11-29T16:40:35.655Z,2.70
2022-11-29T16:43:03.789Z,2.90
2022-11-29T16:45:34.396Z,3.08
2022-11-29T16:48:28.807Z,3.40
2022-11-29T16:51:18.709Z,3.30
2022-11-29T16:53:48.755Z,3.25
2022-11-29T16:56:39.805Z,2.75
2022-11-29T16:59:28.823Z,2.88
2022-11-29T17:02:20.909Z,3.28
2022-11-29T17:05:04.414Z,3.13
2022-11-29T17:07:55.911Z,3.00
2022-11-29T17:10:37.380Z,3.00
2022-11-29T17:13:11.896Z,3.05
2022-11-29T17:16:05.067Z,3.30
2022-11-29T17:18:36.658Z,2.40
2022-11-29T17:21:27.677Z,3.67
2022-11-29T17:24:20.537Z,3.15
2022-11-29T17:27:09.887Z,3.40
2022-11-29T17:29:58.708Z,3.17
2022-11-29T17:32:27.118Z,3.63
2022-11-29T17:34:56.049Z,3.10
2022-11-29T17:37:45.015Z,3.20
2022-11-29T17:40:33.313Z,3.35
2022-11-29T17:43:22.877Z,3.20
2022-11-29T17:46:16.077Z,3.10
2022-11-29T17:49:08.998Z,3.58
2022-11-29T17:51:56.971Z,3.50
2022-11-29T17:54:33.649Z,3.53
2022-11-29T17:57:22.899Z,3.28
2022-11-29T17:59:58.238Z,3.97
2022-11-29T18:02:48.096Z,3.20
2022-11-29T18:05:36.986Z,3.17
2022-11-29T18:08:16.957Z,3.40
2022-11-29T18:11:13.316Z,4.03
2022-11-29T18:14:09.290Z,3.30
2022-11-29T18:16:57.904Z,3.35
2022-11-29T18:19:28.542Z,4.40
2022-11-29T18:22:17.751Z,3.85
2022-11-29T18:25:36.860Z,4.32
2022-11-29T18:27:55.684Z,3.70
2022-11-29T18:30:44.292Z,4.28
2022-11-29T18:33:32.679Z,3.53
2022-11-29T18:36:10.775Z,3.38
2022-11-29T18:39:01.491Z,3.70
2022-11-29T18:41:32.295Z,4.70
2022-11-29T18:44:22.030Z,4.38
2022-11-29T18:46:52.930Z,3.50
2022-11-29T18:49:26.695Z,3.80
2022-11-29T18:52:02.930Z,4.65
2022-11-29T18:54:31.487Z,4.10
2022-11-29T18:57:03.957Z,4.63
2022-11-29T18:59:53.006Z,4.53
2022-11-29T19:02:41.650Z,4.43
2022-11-29T19:05:30.078Z,3.90
2022-11-29T19:07:59.168Z,4.32
2022-11-29T19:10:48.726Z,3.83
2022-11-29T19:13:23.117Z,3.92
2022-11-29T19:16:19.525Z,3.90
2022-11-29T19:19:07.925Z,4.20
2022-11-29T19:21:56.352Z,4.47
2022-11-29T19:24:47.826Z,3.00
2022-11-29T19:27:18.817Z,4.93
2022-11-29T19:29:48.120Z,4.45
2022-11-29T19:32:17.558Z,4.10
2022-11-29T19:35:07.145Z,4.57
2022-11-29T19:37:55.804Z,4.72
2022-11-29T19:40:50.066Z,4.47
2022-11-29T19:43:20.525Z,4.93
2022-11-29T19:46:12.602Z,4.22
2022-11-29T19:48:43.024Z,4.53
2022-11-29T19:51:34.474Z,4.82
2022-11-29T19:54:08.313Z,4.72
2022-11-29T19:56:38.628Z,4.78
2022-11-29T19:59:18.620Z,4.38
2022-11-29T20:01:48.729Z,4.70
2022-11-29T20:04:18.250Z,4.53
2022-11-29T20:06:49.078Z,4.40
2022-11-29T20:09:37.648Z,4.70
2022-11-29T20:12:15.424Z,4.75
2022-11-29T20:15:04.630Z,3.80
2022-11-29T20:17:33.715Z,3.67
2022-11-29T20:20:07.096Z,4.80
2022-11-29T20:22:58.400Z,4.80
2022-11-29T20:25:50.004Z,5.57
2022-11-29T20:28:25.356Z,4.55
2022-11-29T20:30:59.761Z,4.53
2022-11-29T20:33:29.413Z,4.45
2022-11-29T20:36:22.472Z,4.47
2022-11-29T20:39:38.047Z,4.70
2022-11-29T20:42:42.049Z,4.50
2022-11-29T20:45:15.325Z,4.82
2022-11-29T20:48:13.669Z,3.50
2022-11-29T20:51:03.174Z,5.63
2022-11-29T20:53:51.467Z,5.32
2022-11-29T20:56:20.929Z,5.18
2022-11-29T20:59:11.831Z,4.90
2022-11-29T21:02:03.213Z,5.20
2022-11-29T21:04:53.351Z,5.03
2022-11-29T21:07:27.102Z,5.05
2022-11-29T21:10:17.873Z,5.72
2022-11-29T21:13:07.354Z,5.18
2022-11-29T21:15:56.049Z,4.80
2022-11-29T21:18:44.781Z,4.28
2022-11-29T21:21:53.533Z,4.82
2022-11-29T21:24:57.184Z,3.05
2022-11-29T21:27:32.815Z,4.05
2022-11-29T21:30:25.547Z,3.75
2022-11-29T21:33:14.070Z,4.68
2022-11-29T21:35:42.997Z,4.45
2022-11-29T21:38:21.348Z,4.55
2022-11-29T21:40:53.206Z,4.30
2022-11-29T21:43:32.697Z,4.30
2022-11-29T21:46:13.523Z,4.57
2022-11-29T21:48:59.381Z,4.28
2022-11-29T21:51:33.000Z,4.20
2022-11-29T21:54:03.505Z,5.18
2022-11-29T21:56:33.466Z,4.25
2022-11-29T21:59:26.953Z,4.55
2022-11-29T22:02:28.258Z,3.75
2022-11-29T22:04:59.375Z,3.45
2022-11-29T22:07:28.175Z,4.00
2022-11-29T22:10:11.627Z,4.70
2022-11-29T22:12:51.301Z,4.18
2022-11-29T22:15:25.010Z,4.22
2022-11-29T22:17:53.995Z,4.00
2022-11-29T22:20:22.797Z,4.10
2022-11-29T22:22:57.103Z,5.22
2022-11-29T22:25:31.747Z,4.00
2022-11-29T22:28:01.933Z,4.07
2022-11-29T22:30:49.960Z,4.07
2022-11-29T22:33:19.038Z,4.18
2022-11-29T22:35:52.799Z,4.35
2022-11-29T22:38:25.421Z,4.13
2022-11-29T22:40:54.398Z,4.00
2022-11-29T22:43:23.404Z,4.00
2022-11-29T22:45:52.653Z,4.03
2022-11-29T22:48:22.673Z,4.68
2022-11-29T22:50:51.595Z,4.60
2022-11-29T22:53:20.013Z,4.40
2022-11-29T22:56:00.563Z,4.65
2022-11-29T22:58:29.686Z,4.07
2022-11-29T23:01:07.734Z,4.68
2022-11-29T23:03:42.250Z,4.30
2022-11-29T23:06:19.368Z,5.22
2022-11-29T23:08:56.662Z,4.90
2022-11-29T23:11:31.234Z,4.05
2022-11-29T23:14:02.034Z,4.10
2022-11-29T23:16:33.368Z,4.22
2022-11-29T23:19:04.375Z,3.97
2022-11-29T23:21:38.430Z,4.43
2022-11-29T23:24:07.307Z,4.60
2022-11-29T23:26:53.267Z,4.15
2022-11-29T23:29:22.403Z,4.10
2022-11-29T23:31:52.130Z,4.57
2022-11-29T23:34:23.317Z,3.35
2022-11-29T23:36:53.253Z,4.10
2022-11-29T23:39:23.898Z,3.88
2022-11-29T23:42:00.856Z,4.18
2022-11-29T23:44:33.559Z,3.80
2022-11-29T23:47:01.512Z,4.25
2022-11-29T23:49:30.168Z,4.10
2022-11-29T23:51:58.721Z,4.25
2022-11-29T23:54:37.799Z,4.75
2022-11-29T23:57:11.211Z,4.07
2022-11-29T23:59:42.662Z,4.55
